Time;durP1;ratioP1;P1;durP2;ratioP2;P2;SDS_P1;SDS_P2;PMS_P1;PMS_P2;Temp;Humidity;BMP_temperature;BMP_pressure;BME280_temperature;BME280_humidity;BME280_pressure;Samples;Min_cycle;Max_cycle;Signal;HPM_P1;HPM_P2
2021/12/21 00:01:11;;;;;;;3.30;1.20;;;;;;;;;;5154358;27;20043;-75
2021/12/21 00:03:38;;;;;;;4.93;1.20;;;;;;;;;;5135387;27;20371;-75
2021/12/21 00:06:05;;;;;;;3.97;1.05;;;;;;;;;;5135573;27;20109;-75
2021/12/21 00:08:32;;;;;;;4.13;1.42;;;;;;;;;;5154128;27;20042;-75
2021/12/21 00:11:00;;;;;;;3.42;0.93;;;;;;;;;;5154028;27;20018;-74
2021/12/21 00:16:12;;;;;;;3.55;1.20;;;;;;;;;;5154013;27;20478;-75
2021/12/21 00:23:58;;;;;;;4.78;1.10;;;;;;;;;;5153972;27;20034;-75
2021/12/21 00:26:25;;;;;;;3.83;1.17;;;;;;;;;;5135578;27;20023;-75
2021/12/21 00:28:58;;;;;;;5.22;1.08;;;;;;;;;;5153854;27;20464;-75
2021/12/21 00:31:27;;;;;;;5.00;1.30;;;;;;;;;;5135178;27;20034;-75
2021/12/21 00:33:54;;;;;;;4.20;1.10;;;;;;;;;;5154213;27;20472;-75
2021/12/21 00:36:23;;;;;;;5.28;1.10;;;;;;;;;;5153901;27;20496;-74
2021/12/21 00:38:51;;;;;;;2.97;0.90;;;;;;;;;;5135459;27;20069;-75
2021/12/21 00:41:19;;;;;;;3.83;0.93;;;;;;;;;;5153939;27;20019;-75
2021/12/21 00:43:47;;;;;;;3.50;0.63;;;;;;;;;;5154055;27;20022;-75
2021/12/21 00:46:14;;;;;;;6.70;0.90;;;;;;;;;;5135446;27;20023;-75
2021/12/21 00:48:49;;;;;;;3.47;0.73;;;;;;;;;;5153855;27;20030;-76
2021/12/21 00:51:16;;;;;;;4.20;1.00;;;;;;;;;;5154050;27;20467;-75
2021/12/21 00:53:44;;;;;;;3.42;1.00;;;;;;;;;;5154181;27;20099;-75
2021/12/21 00:56:11;;;;;;;3.10;1.05;;;;;;;;;;5137882;27;20023;-75
2021/12/21 00:58:38;;;;;;;3.15;0.88;;;;;;;;;;5139043;27;20115;-75
2021/12/21 01:01:07;;;;;;;3.42;1.10;;;;;;;;;;5157616;27;20043;-75
2021/12/21 01:03:45;;;;;;;2.58;0.77;;;;;;;;;;5157346;27;20015;-76
2021/12/21 01:06:21;;;;;;;3.60;0.70;;;;;;;;;;5138501;27;20110;-76
2021/12/21 01:11:27;;;;;;;2.88;0.80;;;;;;;;;;5157284;27;20027;-75
2021/12/21 01:21:25;;;;;;;;;;;;;;;;;;5157354;27;20031;-76
2021/12/21 01:26:55;;;;;;;5.13;1.30;;;;;;;;;;5157035;27;20050;-76
2021/12/21 01:29:34;;;;;;;4.68;1.23;;;;;;;;;;5138542;27;20022;-75
2021/12/21 01:35:10;;;;;;;3.67;0.98;;;;;;;;;;5157041;27;20113;-75
2021/12/21 01:40:09;;;;;;;;;;;;;;;;;;5157288;27;20023;-74
2021/12/21 01:42:52;;;;;;;4.03;0.93;;;;;;;;;;5138165;27;19903;-75
2021/12/21 01:50:54;;;;;;;3.00;0.90;;;;;;;;;;5156685;27;20402;-75
2021/12/21 01:53:22;;;;;;;4.70;1.27;;;;;;;;;;5156432;27;20410;-75
2021/12/21 01:55:49;;;;;;;4.07;1.05;;;;;;;;;;5137861;27;20023;-76
2021/12/21 01:58:16;;;;;;;4.40;1.20;;;;;;;;;;5156278;27;20019;-75
2021/12/21 02:00:44;;;;;;;4.45;1.20;;;;;;;;;;5156449;27;20463;-75
2021/12/21 02:03:11;;;;;;;4.18;1.25;;;;;;;;;;5156412;27;20023;-75
2021/12/21 02:05:38;;;;;;;3.83;1.02;;;;;;;;;;5156416;27;20494;-74
2021/12/21 02:08:06;;;;;;;4.22;0.90;;;;;;;;;;5155351;27;20015;-75
2021/12/21 02:10:34;;;;;;;3.35;1.00;;;;;;;;;;5137568;27;20026;-75
2021/12/21 02:13:01;;;;;;;7.72;1.52;;;;;;;;;;5137256;27;20019;-75
2021/12/21 02:15:29;;;;;;;2.30;0.70;;;;;;;;;;5137563;27;20053;-75
2021/12/21 02:20:41;;;;;;;3.58;1.08;;;;;;;;;;5156247;27;20019;-75
2021/12/21 02:23:22;;;;;;;4.20;0.90;;;;;;;;;;5155993;27;20479;-74
2021/12/21 02:30:55;;;;;;;;;;;;;;;;;;5156259;27;20448;-75
2021/12/21 02:33:25;;;;;;;2.28;0.80;;;;;;;;;;5155879;27;19903;-74
2021/12/21 02:35:52;;;;;;;3.28;0.80;;;;;;;;;;5137200;27;20022;-74
2021/12/21 02:38:19;;;;;;;4.53;0.80;;;;;;;;;;5155703;27;20022;-74
2021/12/21 02:40:47;;;;;;;3.50;1.33;;;;;;;;;;5137328;27;20019;-74
2021/12/21 02:43:14;;;;;;;6.30;1.15;;;;;;;;;;5136800;27;20019;-74
2021/12/21 02:45:42;;;;;;;5.88;1.20;;;;;;;;;;5136632;27;20019;-74
2021/12/21 02:48:10;;;;;;;3.55;0.73;;;;;;;;;;5155644;27;20015;-74
2021/12/21 02:50:38;;;;;;;3.65;1.20;;;;;;;;;;5136932;27;20023;-74
2021/12/21 02:53:09;;;;;;;5.50;1.15;;;;;;;;;;5155133;27;20563;-74
2021/12/21 02:55:36;;;;;;;3.30;0.98;;;;;;;;;;5136553;27;20424;-75
2021/12/21 02:58:04;;;;;;;4.50;0.82;;;;;;;;;;5155250;27;20025;-75
2021/12/21 03:00:32;;;;;;;2.28;0.90;;;;;;;;;;5155352;27;20023;-75
2021/12/21 03:03:06;;;;;;;4.43;1.08;;;;;;;;;;5136820;27;20467;-73
2021/12/21 03:05:35;;;;;;;3.30;0.85;;;;;;;;;;5155247;27;20011;-74
2021/12/21 03:08:10;;;;;;;3.67;1.02;;;;;;;;;;5155099;27;20030;-74
2021/12/21 03:10:40;;;;;;;4.15;1.02;;;;;;;;;;5155651;27;20100;-75
2021/12/21 03:15:51;;;;;;;3.17;0.80;;;;;;;;;;5156753;27;20279;-76
2021/12/21 03:18:19;;;;;;;5.28;0.95;;;;;;;;;;5155235;27;20025;-77
2021/12/21 03:20:46;;;;;;;2.85;0.60;;;;;;;;;;5156139;27;20053;-76
2021/12/21 03:23:13;;;;;;;4.82;1.17;;;;;;;;;;5155439;27;20015;-73
2021/12/21 03:25:40;;;;;;;4.45;1.00;;;;;;;;;;5155389;27;20035;-75
2021/12/21 03:28:07;;;;;;;3.92;0.85;;;;;;;;;;5155007;27;20034;-75
2021/12/21 03:30:34;;;;;;;4.47;1.17;;;;;;;;;;5136049;27;20023;-75
2021/12/21 03:33:01;;;;;;;4.80;1.30;;;;;;;;;;5136889;27;20026;-76
2021/12/21 03:35:28;;;;;;;4.07;0.85;;;;;;;;;;5136845;27;20023;-76
2021/12/21 03:37:56;;;;;;;3.95;0.90;;;;;;;;;;5155452;27;20023;-77
2021/12/21 03:40:23;;;;;;;7.07;1.20;;;;;;;;;;5155921;27;20121;-77
2021/12/21 03:42:50;;;;;;;4.90;0.90;;;;;;;;;;5155289;27;20015;-75
2021/12/21 03:45:18;;;;;;;3.72;0.90;;;;;;;;;;5155122;27;20019;-76
2021/12/21 03:47:45;;;;;;;3.60;1.00;;;;;;;;;;5136426;27;20041;-75
2021/12/21 03:50:17;;;;;;;3.70;0.85;;;;;;;;;;5136040;27;20050;-75
2021/12/21 03:52:50;;;;;;;6.80;1.10;;;;;;;;;;5154886;27;20042;-74
2021/12/21 03:55:17;;;;;;;4.85;1.05;;;;;;;;;;5137076;27;20047;-75
2021/12/21 03:57:44;;;;;;;5.47;1.08;;;;;;;;;;5136581;27;20023;-75
2021/12/21 04:00:13;;;;;;;5.07;1.05;;;;;;;;;;5154823;27;20011;-76
2021/12/21 04:02:40;;;;;;;5.47;0.93;;;;;;;;;;5154521;27;20019;-76
2021/12/21 04:05:07;;;;;;;3.13;0.90;;;;;;;;;;5154740;27;20098;-76
2021/12/21 04:07:35;;;;;;;4.75;1.00;;;;;;;;;;5154874;27;20068;-76
2021/12/21 04:10:02;;;;;;;4.75;1.08;;;;;;;;;;5135962;27;20027;-76
2021/12/21 04:12:29;;;;;;;3.75;0.88;;;;;;;;;;5154750;27;20023;-76
2021/12/21 04:14:57;;;;;;;4.53;1.20;;;;;;;;;;5135746;27;20086;-76
2021/12/21 04:17:25;;;;;;;5.55;1.05;;;;;;;;;;5154417;27;20022;-75
2021/12/21 04:19:52;;;;;;;4.85;1.48;;;;;;;;;;5154333;27;20014;-76
2021/12/21 04:22:20;;;;;;;3.13;0.90;;;;;;;;;;5136112;27;20102;-76
2021/12/21 04:24:47;;;;;;;4.45;0.77;;;;;;;;;;5135633;27;20075;-76
2021/12/21 04:27:15;;;;;;;4.65;1.13;;;;;;;;;;5136260;27;20034;-76
2021/12/21 04:29:42;;;;;;;4.90;1.10;;;;;;;;;;5156087;27;20023;-76
2021/12/21 04:32:09;;;;;;;6.30;1.30;;;;;;;;;;5158359;27;20015;-77
2021/12/21 04:34:38;;;;;;;4.43;1.05;;;;;;;;;;5158375;27;20015;-77
2021/12/21 04:37:07;;;;;;;3.67;0.90;;;;;;;;;;5158506;27;20535;-77
2021/12/21 04:39:42;;;;;;;3.67;0.90;;;;;;;;;;5139383;27;20078;-77
2021/12/21 04:42:09;;;;;;;7.45;1.40;;;;;;;;;;5139166;27;20019;-75
2021/12/21 04:44:36;;;;;;;3.78;1.10;;;;;;;;;;5139347;27;20015;-75
2021/12/21 04:47:04;;;;;;;4.32;1.10;;;;;;;;;;5139230;27;20023;-75
2021/12/21 04:49:31;;;;;;;7.55;1.20;;;;;;;;;;5158023;27;20025;-76
2021/12/21 04:51:59;;;;;;;3.72;1.27;;;;;;;;;;5122076;27;20034;-75
2021/12/21 04:54:26;;;;;;;4.60;0.98;;;;;;;;;;5138960;27;20034;-75
2021/12/21 04:56:53;;;;;;;5.20;1.23;;;;;;;;;;5157612;27;20045;-75
2021/12/21 04:59:20;;;;;;;4.65;1.10;;;;;;;;;;5157611;27;20011;-75
2021/12/21 05:01:48;;;;;;;4.72;1.23;;;;;;;;;;5157592;27;20026;-74
2021/12/21 05:04:15;;;;;;;5.00;1.10;;;;;;;;;;5158117;27;20027;-75
2021/12/21 05:06:42;;;;;;;6.47;1.10;;;;;;;;;;5157389;27;20390;-75
2021/12/21 05:09:14;;;;;;;3.13;0.90;;;;;;;;;;5138821;27;20023;-75
2021/12/21 05:11:44;;;;;;;5.97;1.10;;;;;;;;;;5138659;27;20023;-75
2021/12/21 05:14:10;;;;;;;;;;;;;;;;;;5158123;27;20033;-76
2021/12/21 05:16:40;;;;;;;3.63;1.10;;;;;;;;;;5157378;27;19953;-76
2021/12/21 05:19:07;;;;;;;5.47;1.08;;;;;;;;;;5157328;27;20019;-75
2021/12/21 05:21:34;;;;;;;5.90;1.35;;;;;;;;;;5138672;27;20130;-75
2021/12/21 05:24:02;;;;;;;4.47;1.30;;;;;;;;;;5157155;27;20018;-75
2021/12/21 05:26:29;;;;;;;6.15;1.50;;;;;;;;;;5138396;27;20030;-75
2021/12/21 05:28:56;;;;;;;6.93;1.85;;;;;;;;;;5157222;27;20097;-75
2021/12/21 05:31:23;;;;;;;6.82;1.23;;;;;;;;;;5156937;27;20023;-74
2021/12/21 05:33:52;;;;;;;5.82;1.48;;;;;;;;;;5138590;27;20019;-74
2021/12/21 05:36:20;;;;;;;4.75;1.45;;;;;;;;;;5138286;27;20025;-74
2021/12/21 05:38:51;;;;;;;4.90;1.45;;;;;;;;;;5156861;27;20015;-75
2021/12/21 05:41:47;;;;;;;6.82;2.03;;;;;;;;;;5155974;27;20045;-75
2021/12/21 05:44:06;;;;;;;7.43;1.45;;;;;;;;;;5156134;27;20023;-76
2021/12/21 05:46:33;;;;;;;8.82;1.92;;;;;;;;;;5156859;27;20050;-75
2021/12/21 05:49:00;;;;;;;4.88;1.38;;;;;;;;;;5156571;27;20022;-74
2021/12/21 05:51:27;;;;;;;5.53;1.30;;;;;;;;;;5137664;27;20433;-75
2021/12/21 05:53:54;;;;;;;4.97;1.35;;;;;;;;;;5156529;27;20038;-76
2021/12/21 05:56:21;;;;;;;7.68;1.67;;;;;;;;;;5156533;27;20529;-75
2021/12/21 05:58:48;;;;;;;6.47;1.58;;;;;;;;;;5156536;27;20015;-75
2021/12/21 06:01:16;;;;;;;7.63;1.35;;;;;;;;;;5156531;27;20089;-75
2021/12/21 06:03:43;;;;;;;4.88;1.08;;;;;;;;;;5156240;27;20026;-75
2021/12/21 06:06:14;;;;;;;7.60;1.33;;;;;;;;;;5156332;27;20027;-74
2021/12/21 06:08:42;;;;;;;6.53;1.88;;;;;;;;;;5156104;27;20019;-74
2021/12/21 06:11:09;;;;;;;6.45;2.13;;;;;;;;;;5156103;27;20023;-75
2021/12/21 06:27:10;;;;;;;7.80;1.70;;;;;;;;;;5156134;27;20550;-73
2021/12/21 06:29:37;;;;;;;7.57;1.52;;;;;;;;;;5136872;27;20123;-72
2021/12/21 06:32:05;;;;;;;5.20;1.70;;;;;;;;;;5136922;27;20034;-72
2021/12/21 06:34:32;;;;;;;5.97;1.58;;;;;;;;;;5155726;27;20053;-73
2021/12/21 06:36:59;;;;;;;6.88;1.58;;;;;;;;;;5155547;27;20018;-73
2021/12/21 06:39:28;;;;;;;4.97;1.48;;;;;;;;;;5137119;27;20030;-74
2021/12/21 06:41:56;;;;;;;6.40;1.45;;;;;;;;;;5155554;27;20042;-73
2021/12/21 06:44:23;;;;;;;9.63;1.60;;;;;;;;;;5136592;27;20390;-74
2021/12/21 06:52:21;;;;;;;5.65;1.70;;;;;;;;;;5154892;27;20576;-73
2021/12/21 06:54:48;;;;;;;6.07;1.73;;;;;;;;;;5155410;27;20031;-73
2021/12/21 06:57:15;;;;;;;6.25;1.67;;;;;;;;;;5136768;27;20039;-73
2021/12/21 06:59:43;;;;;;;5.43;1.23;;;;;;;;;;5155508;27;20099;-74
2021/12/21 07:02:11;;;;;;;5.65;1.63;;;;;;;;;;5136593;27;20494;-74
2021/12/21 07:04:38;;;;;;;9.00;2.00;;;;;;;;;;5136016;27;20066;-74
2021/12/21 07:07:06;;;;;;;6.18;1.60;;;;;;;;;;5155290;27;20031;-74
2021/12/21 07:09:41;;;;;;;6.20;1.45;;;;;;;;;;5154980;27;20023;-73
2021/12/21 07:12:32;;;;;;;6.88;1.80;;;;;;;;;;5136400;27;20026;-73
2021/12/21 07:18:08;;;;;;;7.55;1.63;;;;;;;;;;5154772;27;20540;-72
2021/12/21 07:20:35;;;;;;;5.85;1.90;;;;;;;;;;5154859;27;20045;-72
2021/12/21 07:23:02;;;;;;;5.88;1.25;;;;;;;;;;5136320;27;20465;-72
2021/12/21 07:25:30;;;;;;;5.35;1.52;;;;;;;;;;5154749;27;20386;-72
2021/12/21 07:27:58;;;;;;;4.82;1.50;;;;;;;;;;5154774;27;20088;-71
2021/12/21 07:30:25;;;;;;;5.90;1.55;;;;;;;;;;5136209;27;20026;-72
2021/12/21 07:32:52;;;;;;;5.95;1.42;;;;;;;;;;5135849;27;20075;-73
2021/12/21 07:35:19;;;;;;;5.90;1.42;;;;;;;;;;5154555;27;20027;-73
2021/12/21 07:37:47;;;;;;;6.05;1.48;;;;;;;;;;5154611;27;20038;-73
2021/12/21 07:40:14;;;;;;;8.15;2.65;;;;;;;;;;5154573;27;20026;-73
2021/12/21 07:42:41;;;;;;;6.55;1.98;;;;;;;;;;5154625;27;20019;-73
2021/12/21 07:45:09;;;;;;;6.88;1.70;;;;;;;;;;5154527;27;20471;-73
2021/12/21 07:47:36;;;;;;;5.95;1.60;;;;;;;;;;5135902;27;20022;-73
2021/12/21 07:50:04;;;;;;;5.97;1.67;;;;;;;;;;5154499;27;20025;-74
2021/12/21 07:52:31;;;;;;;6.47;2.03;;;;;;;;;;5135503;27;20051;-73
2021/12/21 07:54:58;;;;;;;7.53;1.55;;;;;;;;;;5154551;27;20030;-74
2021/12/21 07:57:25;;;;;;;6.28;1.73;;;;;;;;;;5154403;27;20065;-72
2021/12/21 07:59:53;;;;;;;8.70;1.65;;;;;;;;;;5154504;27;20015;-71
2021/12/21 08:02:22;;;;;;;6.13;1.52;;;;;;;;;;5154317;27;20109;-72
2021/12/21 08:04:52;;;;;;;5.90;1.90;;;;;;;;;;5155082;27;20435;-72
2021/12/21 08:07:23;;;;;;;7.30;1.98;;;;;;;;;;5139829;27;20369;-71
2021/12/21 08:09:54;;;;;;;6.82;1.52;;;;;;;;;;5139842;27;20046;-71
2021/12/21 08:12:21;;;;;;;5.00;1.20;;;;;;;;;;5158448;27;20050;-73
2021/12/21 08:14:50;;;;;;;8.10;2.17;;;;;;;;;;5139649;27;20023;-70
2021/12/21 08:17:17;;;;;;;5.65;1.40;;;;;;;;;;5158214;27;20175;-71
2021/12/21 08:19:45;;;;;;;7.10;1.50;;;;;;;;;;5158513;27;20339;-70
2021/12/21 08:22:13;;;;;;;6.53;1.48;;;;;;;;;;5158402;27;20098;-71
2021/12/21 08:24:41;;;;;;;7.20;1.92;;;;;;;;;;5158425;27;20509;-71
2021/12/21 08:27:08;;;;;;;4.72;1.40;;;;;;;;;;5139324;27;20027;-70
2021/12/21 08:29:35;;;;;;;7.40;1.30;;;;;;;;;;5157888;27;20045;-70
2021/12/21 08:32:02;;;;;;;6.57;1.27;;;;;;;;;;5157962;27;20026;-70
2021/12/21 08:34:30;;;;;;;4.70;1.25;;;;;;;;;;5158028;27;20389;-71
2021/12/21 08:36:57;;;;;;;5.72;1.65;;;;;;;;;;5157762;27;20045;-70
2021/12/21 08:39:25;;;;;;;8.68;1.88;;;;;;;;;;5157941;27;20454;-71
2021/12/21 08:41:57;;;;;;;4.38;1.50;;;;;;;;;;5138921;27;20094;-70
2021/12/21 08:44:25;;;;;;;10.65;2.00;;;;;;;;;;5139002;27;20023;-70
2021/12/21 08:46:53;;;;;;;7.70;1.60;;;;;;;;;;5138900;27;20037;-70
2021/12/21 08:49:20;;;;;;;5.18;1.50;;;;;;;;;;5138697;27;20027;-70
2021/12/21 08:51:47;;;;;;;7.45;1.70;;;;;;;;;;5157447;27;20096;-71
2021/12/21 08:54:14;;;;;;;8.77;1.65;;;;;;;;;;5157802;27;20058;-69
2021/12/21 08:56:44;;;;;;;7.72;1.40;;;;;;;;;;5138589;27;20022;-69
2021/12/21 08:59:12;;;;;;;7.25;1.55;;;;;;;;;;5157514;27;20019;-70
2021/12/21 09:01:40;;;;;;;5.38;1.48;;;;;;;;;;5157592;27;20513;-70
2021/12/21 09:04:07;;;;;;;9.13;1.40;;;;;;;;;;5138453;27;20025;-71
2021/12/21 09:06:34;;;;;;;6.80;1.35;;;;;;;;;;5157409;27;20041;-72
2021/12/21 09:09:01;;;;;;;6.50;1.23;;;;;;;;;;5157389;27;20019;-71
2021/12/21 09:11:28;;;;;;;6.35;1.17;;;;;;;;;;5157398;27;20435;-71
2021/12/21 09:13:55;;;;;;;4.97;1.63;;;;;;;;;;5138716;27;20075;-71
2021/12/21 09:16:22;;;;;;;10.25;1.65;;;;;;;;;;5157024;27;20030;-71
2021/12/21 09:18:50;;;;;;;6.10;1.40;;;;;;;;;;5157273;27;20015;-71
2021/12/21 09:21:17;;;;;;;6.22;1.13;;;;;;;;;;5157213;27;20023;-71
2021/12/21 09:23:44;;;;;;;7.78;1.80;;;;;;;;;;5156989;27;20018;-72
2021/12/21 09:26:11;;;;;;;5.20;1.52;;;;;;;;;;5157179;27;20489;-72
2021/12/21 09:28:38;;;;;;;7.85;2.10;;;;;;;;;;5138373;27;20110;-73
2021/12/21 09:31:05;;;;;;;5.38;1.40;;;;;;;;;;5138283;27;20054;-72
2021/12/21 09:33:33;;;;;;;7.60;1.85;;;;;;;;;;5138308;27;20096;-73
2021/12/21 09:36:00;;;;;;;5.80;1.83;;;;;;;;;;5138124;27;20030;-73
2021/12/21 09:38:27;;;;;;;6.85;2.22;;;;;;;;;;5156938;27;20011;-73
2021/12/21 09:40:55;;;;;;;11.68;2.30;;;;;;;;;;5156930;27;20098;-74
2021/12/21 09:43:22;;;;;;;7.45;1.85;;;;;;;;;;5156941;27;20015;-74
2021/12/21 09:45:50;;;;;;;7.60;2.08;;;;;;;;;;5157102;27;20018;-73
2021/12/21 09:48:17;;;;;;;9.13;2.50;;;;;;;;;;5156755;27;20083;-73
2021/12/21 09:50:44;;;;;;;8.23;2.33;;;;;;;;;;5138135;27;20023;-72
2021/12/21 09:53:12;;;;;;;8.48;1.92;;;;;;;;;;5137804;27;20086;-72
2021/12/21 09:55:39;;;;;;;10.52;2.65;;;;;;;;;;5156566;27;20071;-72
2021/12/21 09:58:06;;;;;;;10.88;2.60;;;;;;;;;;5137595;27;20026;-72
2021/12/21 10:00:34;;;;;;;8.25;2.47;;;;;;;;;;5156431;27;20043;-72
2021/12/21 10:03:04;;;;;;;9.15;2.97;;;;;;;;;;5137648;27;20022;-72
2021/12/21 10:05:33;;;;;;;10.05;3.33;;;;;;;;;;5156259;27;20022;-73
2021/12/21 10:08:02;;;;;;;11.98;3.25;;;;;;;;;;5156318;27;20029;-73
2021/12/21 10:10:32;;;;;;;12.93;3.25;;;;;;;;;;5156284;27;20030;-73
2021/12/21 10:13:06;;;;;;;11.02;3.10;;;;;;;;;;5156715;27;20038;-74
2021/12/21 10:15:38;;;;;;;8.13;3.33;;;;;;;;;;5156289;27;20029;-72
2021/12/21 10:18:05;;;;;;;13.25;3.20;;;;;;;;;;5156115;27;20015;-73
2021/12/21 10:20:32;;;;;;;9.73;2.83;;;;;;;;;;5137183;27;20029;-73
2021/12/21 10:22:59;;;;;;;11.98;3.28;;;;;;;;;;5137559;27;20091;-73
2021/12/21 10:25:27;;;;;;;9.90;3.85;;;;;;;;;;5156082;27;20122;-73
2021/12/21 10:27:54;;;;;;;9.23;3.00;;;;;;;;;;5155441;27;20046;-72
2021/12/21 10:30:21;;;;;;;9.73;3.63;;;;;;;;;;5155913;27;20543;-73
2021/12/21 10:32:54;;;;;;;8.43;3.15;;;;;;;;;;5155733;27;20031;-73
2021/12/21 10:35:21;;;;;;;11.27;3.22;;;;;;;;;;5136932;27;20099;-73
2021/12/21 10:37:51;;;;;;;8.82;3.08;;;;;;;;;;5155714;27;20019;-73
2021/12/21 10:40:25;;;;;;;8.90;3.30;;;;;;;;;;5137127;27;20372;-73
2021/12/21 10:42:58;;;;;;;13.38;3.40;;;;;;;;;;5136861;27;20478;-73
2021/12/21 10:45:44;;;;;;;9.38;3.45;;;;;;;;;;5137113;27;20025;-73
2021/12/21 10:48:19;;;;;;;8.20;3.17;;;;;;;;;;5155576;27;20029;-73
2021/12/21 10:50:48;;;;;;;15.10;3.60;;;;;;;;;;5155625;27;20015;-73
2021/12/21 10:53:19;;;;;;;10.30;3.40;;;;;;;;;;5155462;27;20121;-74
2021/12/21 10:55:47;;;;;;;9.55;3.20;;;;;;;;;;5155515;27;20421;-73
2021/12/21 10:58:16;;;;;;;10.18;3.60;;;;;;;;;;5136389;27;20427;-73
2021/12/21 11:00:45;;;;;;;11.40;4.03;;;;;;;;;;5155673;27;20067;-73
2021/12/21 11:03:16;;;;;;;11.75;3.35;;;;;;;;;;5136581;27;20019;-73
2021/12/21 11:05:44;;;;;;;9.82;3.92;;;;;;;;;;5155365;27;20011;-73
2021/12/21 11:08:17;;;;;;;11.15;3.85;;;;;;;;;;5155182;27;20019;-73
2021/12/21 11:10:51;;;;;;;14.05;3.60;;;;;;;;;;5155207;27;20018;-73
2021/12/21 11:13:20;;;;;;;6.82;3.25;;;;;;;;;;5136325;27;20023;-73
2021/12/21 11:15:52;;;;;;;11.63;3.60;;;;;;;;;;5136256;27;20045;-73
2021/12/21 11:18:20;;;;;;;11.98;3.95;;;;;;;;;;5155168;27;20023;-73
2021/12/21 11:20:56;;;;;;;13.48;4.25;;;;;;;;;;5155076;27;20094;-73
2021/12/21 11:23:24;;;;;;;12.13;3.92;;;;;;;;;;5136837;27;20031;-72
2021/12/21 11:25:56;;;;;;;13.02;4.13;;;;;;;;;;5154971;27;20015;-72
2021/12/21 11:28:29;;;;;;;10.63;3.75;;;;;;;;;;5136139;27;20051;-72
2021/12/21 11:31:01;;;;;;;14.48;3.58;;;;;;;;;;5154824;27;20041;-72
2021/12/21 11:33:34;;;;;;;11.40;3.42;;;;;;;;;;5154748;27;20026;-72
2021/12/21 11:39:09;;;;;;;11.52;4.30;;;;;;;;;;5070674;28;20545;-73
2021/12/21 11:41:39;;;;;;;8.70;3.20;;;;;;;;;;5054079;28;20021;-72
2021/12/21 11:44:24;;;;;;;11.77;3.63;;;;;;;;;;5095916;27;20027;-72
2021/12/21 11:47:01;;;;;;;11.55;3.38;;;;;;;;;;5154540;27;20430;-72
2021/12/21 11:49:42;;;;;;;10.35;3.10;;;;;;;;;;5135830;27;20027;-73
2021/12/21 11:52:17;;;;;;;10.88;2.85;;;;;;;;;;5154398;27;20042;-72
2021/12/21 11:54:54;;;;;;;8.25;2.60;;;;;;;;;;5154630;27;20027;-72
2021/12/21 11:57:34;;;;;;;8.82;2.55;;;;;;;;;;5154428;27;20059;-72
2021/12/21 12:00:10;;;;;;;12.88;3.03;;;;;;;;;;5154564;27;20049;-72
2021/12/21 12:02:38;;;;;;;11.55;3.45;;;;;;;;;;5135513;27;20034;-72
2021/12/21 12:05:23;;;;;;;12.27;3.15;;;;;;;;;;5154410;27;20026;-72
2021/12/21 12:08:05;;;;;;;13.38;2.95;;;;;;;;;;5135567;27;20482;-72
2021/12/21 12:10:33;;;;;;;11.32;2.55;;;;;;;;;;5154520;27;20026;-72
2021/12/21 12:13:14;;;;;;;15.35;3.35;;;;;;;;;;5154496;27;20539;-72
2021/12/21 12:15:43;;;;;;;19.52;3.67;;;;;;;;;;5154533;27;20029;-72
2021/12/21 12:18:19;;;;;;;12.88;3.35;;;;;;;;;;5154246;27;20097;-72
2021/12/21 12:20:46;;;;;;;14.23;3.20;;;;;;;;;;5154483;27;20019;-72
2021/12/21 12:23:13;;;;;;;13.35;3.38;;;;;;;;;;5154280;27;20068;-72
2021/12/21 12:25:43;;;;;;;;;;;;;;;;;;5136249;27;20509;-73
2021/12/21 12:28:21;;;;;;;13.02;2.60;;;;;;;;;;5154293;27;20359;-73
2021/12/21 12:30:49;;;;;;;12.70;3.17;;;;;;;;;;5154280;27;20019;-72
2021/12/21 12:33:16;;;;;;;12.80;2.83;;;;;;;;;;5154342;27;20390;-72
2021/12/21 12:35:44;;;;;;;13.13;3.10;;;;;;;;;;5154298;27;20031;-72
2021/12/21 12:38:18;;;;;;;14.75;2.95;;;;;;;;;;5135295;27;20019;-72
2021/12/21 12:40:48;;;;;;;16.88;3.83;;;;;;;;;;5135671;27;20071;-72
2021/12/21 12:43:23;;;;;;;14.90;3.72;;;;;;;;;;5135314;27;20022;-72
2021/12/21 12:45:52;;;;;;;17.20;4.35;;;;;;;;;;5154152;27;20027;-72
2021/12/21 12:48:25;;;;;;;11.73;2.65;;;;;;;;;;5135488;27;20019;-72
2021/12/21 12:50:53;;;;;;;9.68;2.45;;;;;;;;;;5154741;27;20382;-72
2021/12/21 12:53:21;;;;;;;14.60;2.88;;;;;;;;;;5138911;27;20034;-72
2021/12/21 12:55:57;;;;;;;13.10;3.13;;;;;;;;;;5157911;27;20022;-72
2021/12/21 12:58:26;;;;;;;16.42;3.67;;;;;;;;;;5139061;27;20041;-72
2021/12/21 13:00:56;;;;;;;16.88;3.33;;;;;;;;;;5139153;27;20019;-72
2021/12/21 13:03:31;;;;;;;21.05;3.25;;;;;;;;;;5138908;27;20130;-72
2021/12/21 13:05:59;;;;;;;15.00;3.30;;;;;;;;;;5139113;27;20031;-72
2021/12/21 13:08:28;;;;;;;16.00;3.17;;;;;;;;;;5157521;27;20014;-72
2021/12/21 13:10:57;;;;;;;16.05;2.88;;;;;;;;;;5157658;27;20019;-72
2021/12/21 13:14:00;;;;;;;14.00;3.30;;;;;;;;;;5157544;27;20067;-72
2021/12/21 13:16:28;;;;;;;20.98;3.88;;;;;;;;;;5122497;27;20026;-72
2021/12/21 13:18:57;;;;;;;15.27;3.25;;;;;;;;;;5138455;27;20025;-72
2021/12/21 13:21:26;;;;;;;15.70;3.55;;;;;;;;;;5138529;27;20015;-72
2021/12/21 13:24:01;;;;;;;15.48;3.70;;;;;;;;;;5157339;27;20087;-72
2021/12/21 13:26:36;;;;;;;17.63;3.35;;;;;;;;;;5138407;27;20022;-72
2021/12/21 13:29:04;;;;;;;13.95;3.53;;;;;;;;;;5157081;27;20098;-72
2021/12/21 13:31:32;;;;;;;18.42;3.63;;;;;;;;;;5157119;27;20032;-72
2021/12/21 13:34:00;;;;;;;16.00;3.33;;;;;;;;;;5157123;27;20109;-72
2021/12/21 13:36:38;;;;;;;17.85;4.00;;;;;;;;;;5156990;27;20109;-73
2021/12/21 13:39:25;;;;;;;14.27;3.20;;;;;;;;;;5157037;27;20014;-73
2021/12/21 13:41:54;;;;;;;17.60;3.50;;;;;;;;;;5138064;27;20030;-73
2021/12/21 13:44:28;;;;;;;13.55;3.38;;;;;;;;;;5156879;27;20022;-73
2021/12/21 13:46:56;;;;;;;19.42;3.95;;;;;;;;;;5156972;27;20141;-73
2021/12/21 13:49:23;;;;;;;20.50;4.63;;;;;;;;;;5156831;27;20029;-73
2021/12/21 13:51:59;;;;;;;18.85;4.15;;;;;;;;;;5156324;27;20072;-73
2021/12/21 13:54:27;;;;;;;19.50;4.57;;;;;;;;;;5156765;27;20043;-73
2021/12/21 13:56:54;;;;;;;21.98;3.67;;;;;;;;;;5156640;27;20488;-72
2021/12/21 13:59:22;;;;;;;18.30;3.72;;;;;;;;;;5156573;27;20059;-72
2021/12/21 14:01:57;;;;;;;22.55;4.38;;;;;;;;;;5156252;27;20015;-72
2021/12/21 14:04:37;;;;;;;24.27;4.13;;;;;;;;;;5156042;27;20382;-73
2021/12/21 14:07:04;;;;;;;19.98;4.38;;;;;;;;;;5156564;27;20027;-72
2021/12/21 14:09:32;;;;;;;25.45;5.07;;;;;;;;;;5156383;27;20018;-73
2021/12/21 14:11:59;;;;;;;26.17;5.13;;;;;;;;;;5156290;27;20386;-73
2021/12/21 14:14:26;;;;;;;28.50;4.57;;;;;;;;;;5156348;27;20027;-73
2021/12/21 14:16:55;;;;;;;19.42;3.95;;;;;;;;;;5137625;27;20035;-72
2021/12/21 14:19:24;;;;;;;17.27;4.40;;;;;;;;;;5137705;27;20503;-72
2021/12/21 14:21:54;;;;;;;23.98;4.45;;;;;;;;;;5137246;27;20019;-73
2021/12/21 14:24:24;;;;;;;23.50;5.43;;;;;;;;;;5137618;27;20080;-73
2021/12/21 14:26:54;;;;;;;17.55;5.85;;;;;;;;;;5156032;27;20424;-72
2021/12/21 14:29:25;;;;;;;28.27;7.63;;;;;;;;;;5156077;27;20093;-73
2021/12/21 14:32:15;;;;;;;27.13;9.48;;;;;;;;;;5137187;27;20046;-73
2021/12/21 14:34:44;;;;;;;42.75;22.50;;;;;;;;;;5155901;27;20015;-73
2021/12/21 14:37:12;;;;;;;38.20;19.58;;;;;;;;;;5155821;27;20026;-72
2021/12/21 14:39:42;;;;;;;20.55;7.55;;;;;;;;;;5155872;27;20015;-73
2021/12/21 14:42:12;;;;;;;36.13;14.52;;;;;;;;;;5137242;27;20101;-73
2021/12/21 14:44:44;;;;;;;27.13;10.63;;;;;;;;;;5137140;27;20509;-73
2021/12/21 14:47:13;;;;;;;24.70;7.68;;;;;;;;;;5155730;27;20023;-73
2021/12/21 14:49:51;;;;;;;22.58;6.43;;;;;;;;;;5155658;27;20394;-73
2021/12/21 14:52:29;;;;;;;14.57;4.72;;;;;;;;;;5155423;27;20398;-73
2021/12/21 14:55:02;;;;;;;15.75;4.00;;;;;;;;;;5136914;27;20034;-73
2021/12/21 14:57:31;;;;;;;18.73;4.57;;;;;;;;;;5155298;27;20021;-73
2021/12/21 14:59:58;;;;;;;13.05;3.63;;;;;;;;;;5155476;27;20093;-73
2021/12/21 15:05:04;;;;;;;18.88;4.65;;;;;;;;;;5155367;27;20027;-73
2021/12/21 15:07:31;;;;;;;13.85;3.40;;;;;;;;;;5155296;27;20102;-73
2021/12/21 15:10:00;;;;;;;17.13;4.22;;;;;;;;;;5136419;27;20018;-73
2021/12/21 15:12:27;;;;;;;18.42;4.45;;;;;;;;;;5155256;27;20129;-73
2021/12/21 15:14:55;;;;;;;15.02;3.63;;;;;;;;;;5154957;27;20030;-72
2021/12/21 15:17:22;;;;;;;17.52;4.25;;;;;;;;;;5155110;27;20496;-73
2021/12/21 15:19:49;;;;;;;20.08;4.53;;;;;;;;;;5136382;27;20050;-73
2021/12/21 15:22:16;;;;;;;19.13;4.68;;;;;;;;;;5155157;27;20019;-72
2021/12/21 15:24:44;;;;;;;23.63;5.30;;;;;;;;;;5154972;27;20360;-72
2021/12/21 15:27:11;;;;;;;17.35;3.92;;;;;;;;;;5154964;27;20543;-72
2021/12/21 15:29:39;;;;;;;20.45;4.57;;;;;;;;;;5136169;27;20030;-72
2021/12/21 15:32:13;;;;;;;16.63;4.68;;;;;;;;;;5155022;27;20027;-72
2021/12/21 15:34:41;;;;;;;21.20;5.28;;;;;;;;;;5155018;27;20025;-72
2021/12/21 15:37:08;;;;;;;15.13;3.80;;;;;;;;;;5154822;27;20033;-73
2021/12/21 15:39:37;;;;;;;18.42;3.78;;;;;;;;;;5154864;27;20034;-73
2021/12/21 15:42:13;;;;;;;20.23;4.32;;;;;;;;;;5154776;27;20026;-73
2021/12/21 15:44:45;;;;;;;14.35;4.13;;;;;;;;;;5135892;27;20075;-73
2021/12/21 15:47:13;;;;;;;19.27;4.60;;;;;;;;;;5154655;27;20071;-73
2021/12/21 15:49:40;;;;;;;18.25;3.70;;;;;;;;;;5135718;27;20030;-73
2021/12/21 15:52:08;;;;;;;17.30;3.97;;;;;;;;;;5154490;27;20038;-73
2021/12/21 15:54:36;;;;;;;13.13;3.85;;;;;;;;;;5135911;27;20482;-73
2021/12/21 15:57:03;;;;;;;16.52;4.38;;;;;;;;;;5154571;27;20026;-73
2021/12/21 15:59:30;;;;;;;19.45;5.03;;;;;;;;;;5136009;27;20049;-72
2021/12/21 16:01:58;;;;;;;18.55;4.45;;;;;;;;;;5154500;27;20019;-72
2021/12/21 16:04:25;;;;;;;17.50;4.70;;;;;;;;;;5154557;27;20053;-72